Pearces, Michigan
Current Conditions -  °F | °C
As of 2:15 AM on Wednesday 22 Oct 2014 (Local Time) from KOZW Reporting Station
Overcast Overcast  
Wind Chill:   Ceiling: 1800
Heat Index:   Visibility: 10mi
Dew Point:   Wind: 5mph
Humidity: 82%   Direction: 360°N
Pressure: 30.23"   Gusts: NA
Location:  42.7°N, 83.9305°W
Report Text: KOZW 220615Z AUTO 36004KT 10SM BKN018 OVC029 05/02 A3023 RMK AO2 T00500021
Loading
Personal Weather Stations






























Interactive Weather Map
Tropical Storm Tracking
New forecast layout! Learn more

10-Day Weather Forecast

Advertisements
Track Severe Weather on mobile